Sauk Centre, MN

11:07 PM CST on December 13, 2019 (GMT -0600)
Sauk Centre

Weather History for KD39 - October, 2019

Change the Weather History Date:

Monday, October 7, 2019

  Actual Average (WUND) Record (WUND)
Temperature  
Mean Temperature 51 °F -  
Max Temperature 63 °F - - (-1)
Min Temperature 39 °F - - (-1)
Degree Days  
Heating Degree Days 14    
Growing Degree Days 1 (Base 50)    
Moisture  
Dew Point 39 °F    
Average Humidity 68    
Maximum Humidity 90    
Minimum Humidity 39    
Precipitation  
Precipitation 0.00 in - - ()
Sea Level Pressure  
Sea Level Pressure 30.08 in    
Wind  
Wind Speed 7 mph ()    
Max Wind Speed 13 mph    
Max Gust Speed 20 mph    
Visibility 10.0 miles    
Events      
Averages and records for this station are not official NWS values.
T = Trace of Precipitation, MM = Missing Value Source: Averaged Metar Reports

Daily Weather History Graph

Daily Weather History Graph

Search for Another Location

Airport or City:

Astronomy

Oct. 07, 2019 Rise Set
Actual Time 7:25 AM CDT 6:48 PM CDT
Civil Twilight 6:55 AM CDT 7:18 PM CDT
Nautical Twilight 6:21 AM CDT 7:52 PM CDT
Astronomical Twilight 5:46 AM CDT 8:27 PM CDT
Moon 4:32 PM CDT (10/7) 12:56 AM CDT (10/7)
Length of Visible Light 12h 22m
Length of Day
11h 23m
Waxing Gibbous, 69% of the Moon is Illuminated
Oct 7
Waxing Gibbous
Oct 13
Full
Oct 21
Last Quarter
Oct 27
New
Nov 4
First Quarter

Hourly Weather History & Observations

Time (CDT) Temp. Windchill Dew Point Humidity Pressure Visibility Wind Dir Wind Speed Gust Speed Precip Events Conditions
12:16 AM 47.7 °F - 41.0 °F 78% 30.04 in 10.0 mi West 8.1 mph - N/A   Clear
12:35 AM 47.3 °F - 41.0 °F 79% 30.04 in 10.0 mi West 9.2 mph - N/A   Scattered Clouds
12:36 AM 47.3 °F - 41.0 °F 79% 30.04 in 10.0 mi West 9.2 mph - N/A   Scattered Clouds
12:55 AM 46.6 °F - 40.8 °F 80% 30.05 in 10.0 mi West 9.2 mph - N/A   Scattered Clouds
12:56 AM 46.6 °F - 40.8 °F 80% 30.05 in 10.0 mi West 9.2 mph - N/A   Scattered Clouds
1:18 AM 44.8 °F 40.4 °F 40.3 °F 84% 30.05 in 10.0 mi WSW 8.1 mph - N/A   Clear
1:36 AM 44.2 °F 39.7 °F 40.1 °F 85% 30.05 in 10.0 mi WSW 8.1 mph - N/A   Clear
1:55 AM 44.4 °F 40.5 °F 40.1 °F 85% 30.05 in 10.0 mi West 6.9 mph - N/A   Clear
1:56 AM 44.4 °F 40.5 °F 39.9 °F 84% 30.05 in 10.0 mi WSW 6.9 mph - N/A   Clear
2:15 AM 43.7 °F 41.1 °F 39.6 °F 85% 30.06 in 10.0 mi WSW 4.6 mph - N/A   Clear
2:16 AM 43.7 °F 40.3 °F 39.6 °F 85% 30.06 in 10.0 mi WSW 5.8 mph - N/A   Clear
2:35 AM 44.2 °F 39.7 °F 39.6 °F 84% 30.06 in 10.0 mi WSW 8.1 mph - N/A   Clear
2:57 AM 45.0 °F 40.1 °F 39.6 °F 81% 30.06 in 10.0 mi WSW 9.2 mph - N/A   Clear
3:16 AM 44.2 °F 38.8 °F 39.4 °F 83% 30.06 in 10.0 mi West 10.4 mph - N/A   Clear
3:35 AM 43.7 °F 38.6 °F 39.4 °F 85% 30.07 in 10.0 mi West 9.2 mph - N/A   Clear
3:36 AM 43.7 °F 38.6 °F 39.2 °F 84% 30.07 in 10.0 mi West 9.2 mph - N/A   Clear
3:55 AM 43.0 °F 37.7 °F 39.2 °F 86% 30.07 in 10.0 mi WSW 9.2 mph - N/A   Clear
3:56 AM 43.0 °F 37.7 °F 39.2 °F 86% 30.07 in 10.0 mi WSW 9.2 mph - N/A   Clear
4:19 AM 42.6 °F 38.4 °F 38.7 °F 86% 30.08 in 10.0 mi West 6.9 mph - N/A   Clear
4:36 AM 42.4 °F 38.1 °F 38.3 °F 85% 30.09 in 10.0 mi West 6.9 mph - N/A   Clear
4:55 AM 42.3 °F 36.8 °F 38.3 °F 86% 30.10 in 10.0 mi West 9.2 mph - N/A   Clear
4:56 AM 42.3 °F 36.8 °F 38.3 °F 86% 30.10 in 10.0 mi West 9.2 mph - N/A   Clear
5:15 AM 41.9 °F 37.5 °F 37.9 °F 86% 30.10 in 10.0 mi West 6.9 mph - N/A   Clear
5:16 AM 41.9 °F 37.5 °F 37.9 °F 86% 30.10 in 10.0 mi West 6.9 mph - N/A   Clear
5:35 AM 41.2 °F 37.3 °F 37.8 °F 88% 30.10 in 10.0 mi West 5.8 mph - N/A   Clear
5:57 AM 41.0 °F 38.0 °F 37.6 °F 88% 30.11 in 10.0 mi West 4.6 mph - N/A   Clear
6:15 AM 40.8 °F 36.9 °F 37.4 °F 88% 30.11 in 10.0 mi West 5.8 mph - N/A   Clear
6:16 AM 40.8 °F 36.9 °F 37.4 °F 88% 30.11 in 10.0 mi West 5.8 mph - N/A   Clear
6:35 AM 41.0 °F 36.4 °F 37.4 °F 87% 30.11 in 10.0 mi West 6.9 mph - N/A   Clear
6:36 AM 41.0 °F 36.4 °F 37.4 °F 87% 30.11 in 10.0 mi West 6.9 mph - N/A   Clear
6:55 AM 40.5 °F 35.8 °F 37.2 °F 88% 30.11 in 10.0 mi West 6.9 mph - N/A   Clear
7:00 AM 40.5 °F 37.3 °F 37.2 °F 88% 30.11 in 10.0 mi West 4.6 mph - N/A   Clear
7:17 AM 40.1 °F 38.0 °F 36.9 °F 88% 30.12 in 10.0 mi West 3.5 mph - N/A   Clear
7:35 AM 39.9 °F - 36.7 °F 88% 30.12 in 10.0 mi Calm Calm - N/A   Clear
7:55 AM 39.4 °F - 36.7 °F 90% 30.12 in 10.0 mi Calm Calm - N/A   Clear
7:56 AM 39.6 °F - 36.7 °F 89% 30.12 in 10.0 mi Calm Calm - N/A   Clear
8:15 AM 40.8 °F 37.8 °F 37.4 °F 88% 30.13 in 10.0 mi West 4.6 mph - N/A   Clear
8:16 AM 40.8 °F 38.8 °F 37.4 °F 88% 30.13 in 10.0 mi West 3.5 mph - N/A   Clear
8:39 AM 42.4 °F 39.6 °F 38.3 °F 85% 30.13 in 10.0 mi West 4.6 mph - N/A   Clear
8:56 AM 43.7 °F 41.1 °F 39.0 °F 84% 30.14 in 10.0 mi West 4.6 mph - N/A   Clear
9:16 AM 45.7 °F 42.7 °F 39.6 °F 79% 30.14 in 10.0 mi West 5.8 mph - N/A   Clear
9:35 AM 47.5 °F - 40.1 °F 76% 30.14 in 10.0 mi WSW 4.6 mph - N/A   Clear
9:36 AM 47.5 °F - 40.1 °F 76% 30.14 in 10.0 mi WSW 4.6 mph - N/A   Clear
9:55 AM 49.1 °F - 40.5 °F 72% 30.14 in 10.0 mi West 4.6 mph - N/A   Clear
9:59 AM 49.3 °F - 40.3 °F 71% 30.14 in 10.0 mi West 5.8 mph - N/A   Clear
10:16 AM 50.2 °F - 40.8 °F 70% 30.16 in 10.0 mi West 4.6 mph - N/A   Clear
10:36 AM 51.6 °F - 41.2 °F 68% 30.16 in 10.0 mi WSW 3.5 mph - N/A   Clear
10:55 AM 53.1 °F - 41.0 °F 64% 30.16 in 10.0 mi West 5.8 mph - N/A   Clear
10:56 AM 53.2 °F - 41.0 °F 63% 30.16 in 10.0 mi West 5.8 mph - N/A   Clear
11:15 AM 55.2 °F - 41.4 °F 60% 30.16 in 10.0 mi WSW 5.8 mph - N/A   Clear
11:19 AM 55.4 °F - 41.2 °F 59% 30.16 in 10.0 mi WSW 8.1 mph - N/A   Clear
11:38 AM 56.8 °F - 40.6 °F 55% 30.15 in 10.0 mi WSW 10.4 mph - N/A   Clear
11:55 AM 58.3 °F - 40.8 °F 52% 30.14 in 10.0 mi West 5.8 mph - N/A   Clear
12:15 PM 59.4 °F - 39.0 °F 47% 30.14 in 10.0 mi WSW 9.2 mph - N/A   Clear
12:16 PM 59.4 °F - 38.7 °F 46% 30.14 in 10.0 mi WSW 9.2 mph - N/A   Clear
12:35 PM 60.1 °F - 38.8 °F 45% 30.14 in 10.0 mi West 8.1 mph - N/A   Clear
12:36 PM 60.1 °F - 38.5 °F 45% 30.14 in 10.0 mi West 8.1 mph - N/A   Clear
12:58 PM 61.2 °F - 39.6 °F 45% 30.13 in 10.0 mi WSW 10.4 mph - N/A   Clear
1:16 PM 61.2 °F - 39.0 °F 44% 30.13 in 10.0 mi WSW 10.4 mph - N/A   Clear
1:35 PM 61.7 °F - 40.1 °F 45% 30.12 in 10.0 mi WSW 10.4 mph - N/A   Clear
1:36 PM 61.7 °F - 40.3 °F 45% 30.12 in 10.0 mi WSW 11.5 mph - N/A   Clear
1:55 PM 62.2 °F - 40.1 °F 44% 30.11 in 10.0 mi WSW 12.7 mph - N/A   Clear
2:19 PM 62.8 °F - 39.4 °F 42% 30.10 in 10.0 mi WSW 10.4 mph - N/A   Clear
2:38 PM 63.1 °F - 39.2 °F 41% 30.09 in 10.0 mi SW 10.4 mph - N/A   Clear
2:56 PM 63.5 °F - 39.6 °F 41% 30.09 in 10.0 mi SW 11.5 mph - N/A   Clear
3:15 PM 63.7 °F - 37.9 °F 39% 30.08 in 10.0 mi WSW 10.4 mph 19.6 mph N/A   Clear
3:16 PM 63.7 °F - 37.9 °F 39% 30.08 in 10.0 mi WSW 11.5 mph 19.6 mph N/A   Clear
3:35 PM 63.5 °F - 37.9 °F 39% 30.08 in 10.0 mi WSW 11.5 mph - N/A   Clear
3:36 PM 63.7 °F - 38.3 °F 39% 30.08 in 10.0 mi SW 9.2 mph 12.7 mph N/A   Clear
3:58 PM 63.9 °F - 39.0 °F 40% 30.07 in 10.0 mi SSW 5.8 mph - N/A   Clear
4:17 PM 63.7 °F - 39.2 °F 41% 30.07 in 10.0 mi SW 9.2 mph 18.4 mph N/A   Clear
4:36 PM 63.7 °F - 38.3 °F 39% 30.06 in 10.0 mi SSW 10.4 mph - N/A   Clear
4:55 PM 63.5 °F - 39.4 °F 41% 30.06 in 10.0 mi SW 8.1 mph - N/A   Clear
4:56 PM 63.5 °F - 39.2 °F 41% 30.06 in 10.0 mi SW 8.1 mph - N/A   Clear
5:15 PM 63.5 °F - 38.5 °F 40% 30.05 in 10.0 mi SSW 9.2 mph - N/A   Clear
5:19 PM 63.1 °F - 38.1 °F 40% 30.05 in 10.0 mi SSW 10.4 mph 16.1 mph N/A   Clear
5:38 PM 62.4 °F - 39.0 °F 42% 30.05 in 10.0 mi SSW 9.2 mph - N/A   Clear
5:55 PM 61.2 °F - 39.0 °F 44% 30.05 in 10.0 mi SSW 6.9 mph - N/A   Clear
6:15 PM 58.8 °F - 40.3 °F 50% 30.04 in 10.0 mi South 4.6 mph - N/A   Clear
6:16 PM 58.8 °F - 40.3 °F 50% 30.04 in 10.0 mi South 4.6 mph - N/A   Clear
6:35 PM 57.7 °F - 39.0 °F 50% 30.04 in 10.0 mi South 4.6 mph - N/A   Clear
6:58 PM 54.5 °F - 39.7 °F 57% 30.04 in 10.0 mi SSE 4.6 mph - N/A   Clear
7:17 PM 53.6 °F - 39.0 °F 58% 30.04 in 10.0 mi SSE 5.8 mph - N/A   Clear
7:36 PM 52.7 °F - 39.2 °F 60% 30.04 in 10.0 mi SE 5.8 mph - N/A   Clear
7:55 PM 48.9 °F - 39.0 °F 69% 30.04 in 10.0 mi SSE 4.6 mph - N/A   Clear
8:15 PM 50.2 °F - 39.6 °F 67% 30.03 in 10.0 mi SSE 4.6 mph - N/A   Clear
8:19 PM 50.0 °F - 39.6 °F 67% 30.03 in 10.0 mi SE 5.8 mph - N/A   Clear
8:37 PM 48.9 °F - 39.4 °F 70% 30.03 in 10.0 mi SSE 4.6 mph - N/A   Clear
8:55 PM 48.2 °F - 39.2 °F 71% 30.03 in 10.0 mi SSE 4.6 mph - N/A   Clear
9:15 PM 48.0 °F - 39.2 °F 72% 30.02 in 10.0 mi SSE 4.6 mph - N/A   Clear
9:16 PM 48.0 °F - 39.0 °F 71% 30.02 in 10.0 mi SSE 5.8 mph - N/A   Clear
9:35 PM 46.8 °F - 38.3 °F 72% 30.02 in 10.0 mi SE 5.8 mph - N/A   Clear
9:36 PM 46.8 °F - 38.3 °F 72% 30.02 in 10.0 mi SE 5.8 mph - N/A   Clear
9:58 PM 46.2 °F 43.3 °F 38.3 °F 74% 30.01 in 10.0 mi SE 5.8 mph - N/A   Clear
10:16 PM 46.2 °F 44.1 °F 38.3 °F 74% 30.01 in 10.0 mi SE 4.6 mph - N/A   Clear
10:36 PM 45.9 °F 42.9 °F 38.3 °F 75% 30.01 in 10.0 mi SE 5.8 mph - N/A   Clear
10:55 PM 46.4 °F 43.5 °F 38.3 °F 73% 30.00 in 10.0 mi SE 5.8 mph - N/A   Clear
10:56 PM 46.4 °F 43.5 °F 38.3 °F 73% 30.00 in 10.0 mi SE 5.8 mph - N/A   Clear
11:15 PM 45.0 °F 41.8 °F 38.3 °F 77% 30.00 in 10.0 mi SE 5.8 mph - N/A   Clear
11:37 PM 45.9 °F 41.7 °F 38.8 °F 76% 29.99 in 10.0 mi SE 8.1 mph - N/A   Clear
11:56 PM 45.5 °F 41.3 °F 38.8 °F 78% 29.98 in 10.0 mi SE 8.1 mph - N/A   Clear